Terminal Aerodrome Forecast
Issued by NWS

Home | Current Version | Previous Version | Text Only | Print | Product List | Glossary Off
Versions: 1 2 3 4 5 6 7 8 9 10 11 12 13 14 15 16 17 18 19 20 21 22 23

061
FTUS41 KCLE 261738
TAFFDY
TAF
KFDY 261738Z 2618/2718 25008KT P6SM SCT035
     FM270200 12008KT 6SM -SHRA VCTS SCT025CB OVC050
     FM270900 03008KT 5SM BR SCT005 OVC015
     FM271600 04008KT P6SM SCT015 BKN025=

USA.gov is the U.S. government's official web portal to all federal, state and local government web resources and services.